sensor_id;sensor_type;location;lat;lon;timestamp;pressure;altitude;pressure_sealevel;temperature;humidity
21240;BME280;10778;48.962;9.018;2023-07-31T00:00:34;99108.81;;;13.26;100.00
21240;BME280;10778;48.962;9.018;2023-07-31T00:03:00;99114.09;;;13.26;100.00
21240;BME280;10778;48.962;9.018;2023-07-31T00:05:26;99104.84;;;13.22;100.00
21240;BME280;10778;48.962;9.018;2023-07-31T00:07:52;99111.78;;;13.23;100.00
21240;BME280;10778;48.962;9.018;2023-07-31T00:10:20;99116.06;;;13.24;100.00
21240;BME280;10778;48.962;9.018;2023-07-31T00:12:46;99123.78;;;13.17;100.00
21240;BME280;10778;48.962;9.018;2023-07-31T00:15:14;99120.47;;;13.15;100.00
21240;BME280;10778;48.962;9.018;2023-07-31T00:17:40;99120.97;;;13.11;100.00
21240;BME280;10778;48.962;9.018;2023-07-31T00:20:06;99116.94;;;13.06;100.00
21240;BME280;10778;48.962;9.018;2023-07-31T00:22:32;99124.19;;;13.04;100.00
21240;BME280;10778;48.962;9.018;2023-07-31T00:24:58;99122.72;;;13.02;100.00
21240;BME280;10778;48.962;9.018;2023-07-31T00:27:25;99124.50;;;13.01;100.00
21240;BME280;10778;48.962;9.018;2023-07-31T00:29:51;99128.94;;;13.01;100.00
21240;BME280;10778;48.962;9.018;2023-07-31T00:32:17;99128.13;;;13.00;100.00
21240;BME280;10778;48.962;9.018;2023-07-31T00:34:43;99128.34;;;13.07;100.00
21240;BME280;10778;48.962;9.018;2023-07-31T00:37:09;99121.41;;;13.06;100.00
21240;BME280;10778;48.962;9.018;2023-07-31T00:39:42;99119.91;;;13.03;100.00
21240;BME280;10778;48.962;9.018;2023-07-31T00:42:08;99119.59;;;13.06;100.00
21240;BME280;10778;48.962;9.018;2023-07-31T00:44:34;99115.16;;;13.07;100.00
21240;BME280;10778;48.962;9.018;2023-07-31T00:47:00;99112.81;;;13.04;100.00
21240;BME280;10778;48.962;9.018;2023-07-31T00:49:26;99111.75;;;12.97;100.00
21240;BME280;10778;48.962;9.018;2023-07-31T00:51:53;99104.81;;;12.95;100.00
21240;BME280;10778;48.962;9.018;2023-07-31T00:54:20;99106.88;;;12.84;100.00
21240;BME280;10778;48.962;9.018;2023-07-31T00:56:46;99098.38;;;12.72;100.00
21240;BME280;10778;48.962;9.018;2023-07-31T00:59:14;99101.84;;;12.54;100.00
21240;BME280;10778;48.962;9.018;2023-07-31T01:01:40;99087.97;;;12.52;100.00
21240;BME280;10778;48.962;9.018;2023-07-31T01:04:06;99107.94;;;12.55;100.00
21240;BME280;10778;48.962;9.018;2023-07-31T01:11:50;99086.50;;;12.58;100.00
21240;BME280;10778;48.962;9.018;2023-07-31T01:14:18;99092.41;;;12.51;100.00
21240;BME280;10778;48.962;9.018;2023-07-31T01:16:44;99090.06;;;12.48;100.00
21240;BME280;10778;48.962;9.018;2023-07-31T01:19:14;99076.88;;;12.48;100.00
21240;BME280;10778;48.962;9.018;2023-07-31T01:22:36;99076.44;;;12.53;100.00
21240;BME280;10778;48.962;9.018;2023-07-31T01:24:58;99069.88;;;12.57;100.00
21240;BME280;10778;48.962;9.018;2023-07-31T01:27:30;99068.75;;;12.60;100.00
21240;BME280;10778;48.962;9.018;2023-07-31T01:30:11;99070.75;;;12.66;100.00
21240;BME280;10778;48.962;9.018;2023-07-31T01:32:42;99072.28;;;12.69;100.00
21240;BME280;10778;48.962;9.018;2023-07-31T01:35:09;99072.28;;;12.69;100.00
21240;BME280;10778;48.962;9.018;2023-07-31T01:37:35;99067.44;;;12.64;100.00
21240;BME280;10778;48.962;9.018;2023-07-31T01:40:02;99070.22;;;12.62;100.00
21240;BME280;10778;48.962;9.018;2023-07-31T01:42:28;99073.41;;;12.66;100.00
21240;BME280;10778;48.962;9.018;2023-07-31T01:44:54;99069.78;;;12.67;100.00
21240;BME280;10778;48.962;9.018;2023-07-31T01:47:20;99059.91;;;12.69;100.00
21240;BME280;10778;48.962;9.018;2023-07-31T01:49:46;99059.59;;;12.72;100.00
21240;BME280;10778;48.962;9.018;2023-07-31T01:52:12;99058.59;;;12.73;100.00
21240;BME280;10778;48.962;9.018;2023-07-31T01:54:38;99051.66;;;12.72;100.00
21240;BME280;10778;48.962;9.018;2023-07-31T01:57:04;99056.13;;;12.72;100.00
21240;BME280;10778;48.962;9.018;2023-07-31T01:59:30;99050.31;;;12.68;100.00
21240;BME280;10778;48.962;9.018;2023-07-31T02:01:56;99042.53;;;12.66;100.00
21240;BME280;10778;48.962;9.018;2023-07-31T02:04:23;99049.97;;;12.63;100.00
21240;BME280;10778;48.962;9.018;2023-07-31T02:06:49;99047.91;;;12.57;100.00
21240;BME280;10778;48.962;9.018;2023-07-31T02:09:15;99052.22;;;12.58;100.00
21240;BME280;10778;48.962;9.018;2023-07-31T02:11:41;99046.56;;;12.52;100.00
21240;BME280;10778;48.962;9.018;2023-07-31T02:14:07;99040.88;;;12.65;100.00
21240;BME280;10778;48.962;9.018;2023-07-31T02:16:34;99039.84;;;12.58;100.00
21240;BME280;10778;48.962;9.018;2023-07-31T02:19:00;99039.94;;;12.48;100.00
21240;BME280;10778;48.962;9.018;2023-07-31T02:21:26;99032.16;;;12.47;100.00
21240;BME280;10778;48.962;9.018;2023-07-31T02:23:52;99020.78;;;12.46;100.00
21240;BME280;10778;48.962;9.018;2023-07-31T02:26:18;99022.50;;;12.56;100.00
21240;BME280;10778;48.962;9.018;2023-07-31T02:28:44;99019.28;;;12.62;100.00
21240;BME280;10778;48.962;9.018;2023-07-31T02:31:11;99011.66;;;12.59;100.00
21240;BME280;10778;48.962;9.018;2023-07-31T02:33:37;99012.34;;;12.61;100.00
21240;BME280;10778;48.962;9.018;2023-07-31T02:36:03;99011.34;;;12.62;100.00
21240;BME280;10778;48.962;9.018;2023-07-31T02:38:29;99014.00;;;12.62;100.00
21240;BME280;10778;48.962;9.018;2023-07-31T02:40:55;99021.25;;;12.60;100.00
21240;BME280;10778;48.962;9.018;2023-07-31T02:43:21;99015.97;;;12.60;100.00
21240;BME280;10778;48.962;9.018;2023-07-31T02:45:51;99024.47;;;12.72;100.00
21240;BME280;10778;48.962;9.018;2023-07-31T02:48:18;99011.81;;;12.57;100.00
21240;BME280;10778;48.962;9.018;2023-07-31T02:50:45;99022.97;;;12.51;100.00
21240;BME280;10778;48.962;9.018;2023-07-31T02:53:11;99016.06;;;12.50;100.00
21240;BME280;10778;48.962;9.018;2023-07-31T02:55:37;99001.88;;;12.51;100.00
21240;BME280;10778;48.962;9.018;2023-07-31T02:58:03;99002.47;;;12.45;100.00
21240;BME280;10778;48.962;9.018;2023-07-31T03:00:29;99013.91;;;12.54;100.00
21240;BME280;10778;48.962;9.018;2023-07-31T03:02:55;99020.53;;;12.58;100.00
21240;BME280;10778;48.962;9.018;2023-07-31T03:05:21;99025.81;;;12.58;100.00
21240;BME280;10778;48.962;9.018;2023-07-31T03:07:48;99022.72;;;12.62;100.00
21240;BME280;10778;48.962;9.018;2023-07-31T03:10:14;99022.38;;;12.57;100.00
21240;BME280;10778;48.962;9.018;2023-07-31T03:12:40;99025.38;;;12.62;100.00
21240;BME280;10778;48.962;9.018;2023-07-31T03:15:07;99023.03;;;12.59;100.00
21240;BME280;10778;48.962;9.018;2023-07-31T03:17:33;99019.59;;;12.59;100.00
21240;BME280;10778;48.962;9.018;2023-07-31T03:19:59;99016.63;;;12.62;100.00
21240;BME280;10778;48.962;9.018;2023-07-31T03:22:25;99017.44;;;12.62;100.00
21240;BME280;10778;48.962;9.018;2023-07-31T03:24:51;99017.31;;;12.64;100.00
21240;BME280;10778;48.962;9.018;2023-07-31T03:27:18;99009.31;;;12.56;100.00
21240;BME280;10778;48.962;9.018;2023-07-31T03:29:44;99013.59;;;12.57;100.00
21240;BME280;10778;48.962;9.018;2023-07-31T03:32:10;99012.34;;;12.61;100.00
21240;BME280;10778;48.962;9.018;2023-07-31T03:34:36;99010.38;;;12.63;100.00
21240;BME280;10778;48.962;9.018;2023-07-31T03:37:05;99010.19;;;12.64;100.00
21240;BME280;10778;48.962;9.018;2023-07-31T03:39:31;99013.81;;;12.63;100.00
21240;BME280;10778;48.962;9.018;2023-07-31T03:41:57;99020.94;;;12.63;100.00
21240;BME280;10778;48.962;9.018;2023-07-31T03:44:23;99020.75;;;12.64;100.00
21240;BME280;10778;48.962;9.018;2023-07-31T03:46:49;99012.03;;;12.64;100.00
21240;BME280;10778;48.962;9.018;2023-07-31T03:49:15;99020.09;;;12.62;100.00
21240;BME280;10778;48.962;9.018;2023-07-31T03:51:41;99019.78;;;12.65;100.00
21240;BME280;10778;48.962;9.018;2023-07-31T03:54:07;99007.78;;;12.71;100.00
21240;BME280;10778;48.962;9.018;2023-07-31T03:56:33;99002.13;;;12.66;100.00
21240;BME280;10778;48.962;9.018;2023-07-31T03:58:59;99002.94;;;12.66;100.00
21240;BME280;10778;48.962;9.018;2023-07-31T04:01:26;99008.09;;;12.68;100.00
21240;BME280;10778;48.962;9.018;2023-07-31T04:03:52;99014.34;;;12.67;100.00
21240;BME280;10778;48.962;9.018;2023-07-31T04:06:18;99019.50;;;12.69;100.00
21240;BME280;10778;48.962;9.018;2023-07-31T04:08:44;99023.78;;;12.70;100.00
21240;BME280;10778;48.962;9.018;2023-07-31T04:11:13;99019.72;;;12.75;100.00
21240;BME280;10778;48.962;9.018;2023-07-31T04:13:39;99019.22;;;12.80;100.00
21240;BME280;10778;48.962;9.018;2023-07-31T04:16:05;99007.19;;;12.77;100.00
21240;BME280;10778;48.962;9.018;2023-07-31T04:18:31;99001.78;;;12.87;100.00
21240;BME280;10778;48.962;9.018;2023-07-31T04:20:58;99015.00;;;12.87;100.00
21240;BME280;10778;48.962;9.018;2023-07-31T04:23:25;98997.41;;;12.96;100.00
21240;BME280;10778;48.962;9.018;2023-07-31T04:25:51;99008.00;;;13.04;100.00
21240;BME280;10778;48.962;9.018;2023-07-31T04:28:17;99014.59;;;13.08;100.00
21240;BME280;10778;48.962;9.018;2023-07-31T04:30:43;99009.91;;;13.20;100.00
21240;BME280;10778;48.962;9.018;2023-07-31T04:33:09;99012.63;;;13.37;100.00
21240;BME280;10778;48.962;9.018;2023-07-31T04:35:35;99007.59;;;13.52;100.00
21240;BME280;10778;48.962;9.018;2023-07-31T04:38:01;99012.09;;;13.68;100.00
21240;BME280;10778;48.962;9.018;2023-07-31T04:40:27;99008.13;;;13.56;100.00
21240;BME280;10778;48.962;9.018;2023-07-31T04:42:53;99005.94;;;13.51;100.00
21240;BME280;10778;48.962;9.018;2023-07-31T04:45:19;99015.06;;;13.57;100.00
21240;BME280;10778;48.962;9.018;2023-07-31T04:47:45;99002.19;;;13.62;100.00
21240;BME280;10778;48.962;9.018;2023-07-31T04:50:11;98998.72;;;13.61;100.00
21240;BME280;10778;48.962;9.018;2023-07-31T04:52:37;98994.56;;;13.59;100.00
21240;BME280;10778;48.962;9.018;2023-07-31T04:55:03;99004.16;;;13.60;100.00
21240;BME280;10778;48.962;9.018;2023-07-31T04:57:29;99006.66;;;13.70;100.00
21240;BME280;10778;48.962;9.018;2023-07-31T04:59:55;98995.13;;;13.79;100.00
21240;BME280;10778;48.962;9.018;2023-07-31T05:02:21;98994.16;;;13.80;100.00
21240;BME280;10778;48.962;9.018;2023-07-31T05:04:47;98996.78;;;13.80;100.00
21240;BME280;10778;48.962;9.018;2023-07-31T05:07:13;98994.63;;;13.84;100.00
21240;BME280;10778;48.962;9.018;2023-07-31T05:09:39;98983.25;;;13.91;100.00
21240;BME280;10778;48.962;9.018;2023-07-31T05:12:06;98992.69;;;14.02;100.00
21240;BME280;10778;48.962;9.018;2023-07-31T05:14:32;98988.22;;;14.03;100.00
21240;BME280;10778;48.962;9.018;2023-07-31T05:16:58;98988.72;;;14.15;100.00
21240;BME280;10778;48.962;9.018;2023-07-31T05:19:24;98988.09;;;14.29;100.00
21240;BME280;10778;48.962;9.018;2023-07-31T05:21:50;98982.13;;;14.44;100.00
21240;BME280;10778;48.962;9.018;2023-07-31T05:24:16;98991.91;;;14.51;100.00
21240;BME280;10778;48.962;9.018;2023-07-31T05:26:41;98990.25;;;14.50;100.00
21240;BME280;10778;48.962;9.018;2023-07-31T05:29:07;98983.09;;;14.84;100.00
21240;BME280;10778;48.962;9.018;2023-07-31T05:31:33;98986.94;;;14.82;100.00
21240;BME280;10778;48.962;9.018;2023-07-31T05:33:59;98982.28;;;14.84;100.00
21240;BME280;10778;48.962;9.018;2023-07-31T05:36:25;98968.34;;;14.90;100.00
21240;BME280;10778;48.962;9.018;2023-07-31T05:38:51;98981.25;;;14.93;100.00
21240;BME280;10778;48.962;9.018;2023-07-31T05:41:17;98982.56;;;14.97;100.00
21240;BME280;10778;48.962;9.018;2023-07-31T05:43:44;98986.72;;;15.08;100.00
21240;BME280;10778;48.962;9.018;2023-07-31T05:46:10;98983.16;;;15.24;100.00
21240;BME280;10778;48.962;9.018;2023-07-31T05:48:37;98981.44;;;15.40;100.00
21240;BME280;10778;48.962;9.018;2023-07-31T05:51:03;98978.38;;;15.59;100.00
21240;BME280;10778;48.962;9.018;2023-07-31T05:53:29;98981.22;;;15.89;100.00
21240;BME280;10778;48.962;9.018;2023-07-31T05:55:55;98964.47;;;16.12;100.00
21240;BME280;10778;48.962;9.018;2023-07-31T05:58:21;98973.69;;;16.63;98.71
21240;BME280;10778;48.962;9.018;2023-07-31T06:00:47;98972.44;;;16.89;97.63
21240;BME280;10778;48.962;9.018;2023-07-31T06:03:14;98966.88;;;17.14;96.50
21240;BME280;10778;48.962;9.018;2023-07-31T06:05:40;98971.09;;;17.23;94.63
21240;BME280;10778;48.962;9.018;2023-07-31T06:08:06;98974.63;;;17.45;92.26
21240;BME280;10778;48.962;9.018;2023-07-31T06:10:32;98967.00;;;17.57;85.71
21240;BME280;10778;48.962;9.018;2023-07-31T06:12:58;98965.78;;;17.75;79.35
21240;BME280;10778;48.962;9.018;2023-07-31T06:15:25;98967.84;;;17.80;75.00
21240;BME280;10778;48.962;9.018;2023-07-31T06:17:51;98955.50;;;18.59;75.43
21240;BME280;10778;48.962;9.018;2023-07-31T06:20:17;98954.28;;;19.32;72.58
21240;BME280;10778;48.962;9.018;2023-07-31T06:22:43;98955.78;;;19.48;73.45
21240;BME280;10778;48.962;9.018;2023-07-31T06:25:09;98960.09;;;19.49;69.46
21240;BME280;10778;48.962;9.018;2023-07-31T06:27:35;98946.78;;;19.56;69.68
21240;BME280;10778;48.962;9.018;2023-07-31T06:30:01;98955.66;;;19.21;69.67
21240;BME280;10778;48.962;9.018;2023-07-31T06:32:27;98951.59;;;19.25;70.48
21240;BME280;10778;48.962;9.018;2023-07-31T06:34:53;98951.09;;;19.50;70.27
21240;BME280;10778;48.962;9.018;2023-07-31T06:37:19;98948.47;;;19.15;69.00
21240;BME280;10778;48.962;9.018;2023-07-31T06:39:45;98949.34;;;18.94;68.30
21240;BME280;10778;48.962;9.018;2023-07-31T06:42:11;98950.31;;;19.14;68.58
21240;BME280;10778;48.962;9.018;2023-07-31T06:44:37;98955.19;;;19.46;68.19
21240;BME280;10778;48.962;9.018;2023-07-31T06:47:04;98949.59;;;20.03;67.27
21240;BME280;10778;48.962;9.018;2023-07-31T06:49:30;98942.59;;;20.89;64.44
21240;BME280;10778;48.962;9.018;2023-07-31T06:51:56;98949.38;;;20.72;64.48
21240;BME280;10778;48.962;9.018;2023-07-31T06:54:22;98945.28;;;20.69;63.22
21240;BME280;10778;48.962;9.018;2023-07-31T07:00:37;98937.44;;;19.94;64.66
21240;BME280;10778;48.962;9.018;2023-07-31T07:03:03;98943.03;;;20.06;66.71
21240;BME280;10778;48.962;9.018;2023-07-31T07:05:29;98938.81;;;19.63;65.96
21240;BME280;10778;48.962;9.018;2023-07-31T07:07:55;98943.81;;;19.99;66.50
21240;BME280;10778;48.962;9.018;2023-07-31T07:10:21;98943.03;;;19.99;67.44
21240;BME280;10778;48.962;9.018;2023-07-31T07:12:47;98936.56;;;19.80;67.61
21240;BME280;10778;48.962;9.018;2023-07-31T07:15:13;98935.25;;;19.35;67.82
21240;BME280;10778;48.962;9.018;2023-07-31T07:17:39;98929.56;;;19.65;66.89
21240;BME280;10778;48.962;9.018;2023-07-31T07:20:06;98932.78;;;19.40;67.91
21240;BME280;10778;48.962;9.018;2023-07-31T07:22:33;98940.88;;;19.60;68.68
21240;BME280;10778;48.962;9.018;2023-07-31T07:24:59;98934.91;;;19.65;68.04
21240;BME280;10778;48.962;9.018;2023-07-31T07:27:25;98932.84;;;19.60;67.25
21240;BME280;10778;48.962;9.018;2023-07-31T07:29:51;98927.00;;;19.99;65.73
21240;BME280;10778;48.962;9.018;2023-07-31T07:32:18;98925.97;;;20.27;66.66
21240;BME280;10778;48.962;9.018;2023-07-31T07:34:45;98914.88;;;20.16;63.99
21240;BME280;10778;48.962;9.018;2023-07-31T07:37:11;98920.84;;;20.32;66.06
21240;BME280;10778;48.962;9.018;2023-07-31T07:39:37;98922.66;;;20.72;64.26
21240;BME280;10778;48.962;9.018;2023-07-31T07:42:03;98922.88;;;21.29;63.91
21240;BME280;10778;48.962;9.018;2023-07-31T07:44:29;98908.75;;;21.68;62.85
21240;BME280;10778;48.962;9.018;2023-07-31T07:46:55;98906.66;;;22.02;61.75
21240;BME280;10778;48.962;9.018;2023-07-31T07:49:21;98905.16;;;22.06;62.32
21240;BME280;10778;48.962;9.018;2023-07-31T07:51:49;98918.44;;;21.10;61.54
21240;BME280;10778;48.962;9.018;2023-07-31T07:54:15;98916.19;;;21.07;61.32
21240;BME280;10778;48.962;9.018;2023-07-31T07:56:42;98908.16;;;21.91;59.52
21240;BME280;10778;48.962;9.018;2023-07-31T07:59:08;98910.59;;;22.50;57.89
21240;BME280;10778;48.962;9.018;2023-07-31T08:01:34;98902.28;;;22.77;57.49
21240;BME280;10778;48.962;9.018;2023-07-31T08:04:00;98900.81;;;23.49;56.24
21240;BME280;10778;48.962;9.018;2023-07-31T08:06:26;98893.88;;;24.14;53.50
21240;BME280;10778;48.962;9.018;2023-07-31T08:08:52;98886.75;;;23.78;52.80
21240;BME280;10778;48.962;9.018;2023-07-31T08:11:18;98886.59;;;23.61;54.54
21240;BME280;10778;48.962;9.018;2023-07-31T08:13:44;98896.00;;;22.21;56.48
21240;BME280;10778;48.962;9.018;2023-07-31T08:16:10;98898.69;;;22.65;57.02
21240;BME280;10778;48.962;9.018;2023-07-31T08:18:36;98895.25;;;23.63;54.53
21240;BME280;10778;48.962;9.018;2023-07-31T08:21:03;98884.28;;;24.19;53.50
21240;BME280;10778;48.962;9.018;2023-07-31T08:23:29;98891.69;;;23.01;55.09
21240;BME280;10778;48.962;9.018;2023-07-31T08:25:55;98887.34;;;23.19;54.54
21240;BME280;10778;48.962;9.018;2023-07-31T08:28:21;98882.13;;;23.05;54.69
21240;BME280;10778;48.962;9.018;2023-07-31T08:30:47;98891.38;;;21.77;56.96
21240;BME280;10778;48.962;9.018;2023-07-31T08:33:13;98889.31;;;21.72;58.88
21240;BME280;10778;48.962;9.018;2023-07-31T08:35:39;98896.66;;;21.45;59.08
21240;BME280;10778;48.962;9.018;2023-07-31T08:38:05;98889.72;;;21.37;59.70
21240;BME280;10778;48.962;9.018;2023-07-31T08:40:31;98895.75;;;21.26;59.87
21240;BME280;10778;48.962;9.018;2023-07-31T08:42:57;98887.53;;;21.66;61.80
21240;BME280;10778;48.962;9.018;2023-07-31T08:45:28;98891.50;;;22.14;60.11
21240;BME280;10778;48.962;9.018;2023-07-31T08:47:55;98895.34;;;22.00;59.98
21240;BME280;10778;48.962;9.018;2023-07-31T08:50:22;98888.16;;;22.19;58.63
21240;BME280;10778;48.962;9.018;2023-07-31T08:52:50;98884.41;;;22.45;59.85
21240;BME280;10778;48.962;9.018;2023-07-31T08:55:16;98885.91;;;21.58;59.60
21240;BME280;10778;48.962;9.018;2023-07-31T08:57:43;98880.56;;;21.52;59.32
21240;BME280;10778;48.962;9.018;2023-07-31T09:00:10;98872.59;;;21.45;59.45
21240;BME280;10778;48.962;9.018;2023-07-31T09:02:56;98864.94;;;21.87;58.73
21240;BME280;10778;48.962;9.018;2023-07-31T09:05:23;98865.78;;;21.49;59.17
21240;BME280;10778;48.962;9.018;2023-07-31T09:07:52;98870.00;;;22.21;58.92
21240;BME280;10778;48.962;9.018;2023-07-31T09:10:18;98873.97;;;22.19;58.24
21240;BME280;10778;48.962;9.018;2023-07-31T09:12:45;98873.72;;;22.20;59.62
21240;BME280;10778;48.962;9.018;2023-07-31T09:15:12;98865.47;;;22.22;58.84
21240;BME280;10778;48.962;9.018;2023-07-31T09:17:38;98862.03;;;21.89;58.65
21240;BME280;10778;48.962;9.018;2023-07-31T09:20:18;98865.53;;;21.90;59.47
21240;BME280;10778;48.962;9.018;2023-07-31T09:22:44;98857.28;;;21.59;60.08
21240;BME280;10778;48.962;9.018;2023-07-31T09:27:53;98854.34;;;21.67;59.90
21240;BME280;10778;48.962;9.018;2023-07-31T09:30:21;98852.03;;;22.03;60.60
21240;BME280;10778;48.962;9.018;2023-07-31T09:32:49;98849.56;;;21.37;59.16
21240;BME280;10778;48.962;9.018;2023-07-31T09:35:19;98845.09;;;21.63;60.74
21240;BME280;10778;48.962;9.018;2023-07-31T09:37:58;98842.19;;;21.65;59.80
21240;BME280;10778;48.962;9.018;2023-07-31T09:40:33;98831.31;;;21.59;59.92
21240;BME280;10778;48.962;9.018;2023-07-31T09:43:07;98825.69;;;22.00;60.07
21240;BME280;10778;48.962;9.018;2023-07-31T09:45:35;98819.41;;;21.87;60.16
21240;BME280;10778;48.962;9.018;2023-07-31T09:48:12;98822.03;;;21.62;60.44
21240;BME280;10778;48.962;9.018;2023-07-31T09:50:41;98822.84;;;21.95;59.75
21240;BME280;10778;48.962;9.018;2023-07-31T09:53:08;98818.41;;;22.07;60.09
21240;BME280;10778;48.962;9.018;2023-07-31T09:55:36;98814.03;;;22.31;58.81
21240;BME280;10778;48.962;9.018;2023-07-31T09:58:05;98819.94;;;22.40;57.13
21240;BME280;10778;48.962;9.018;2023-07-31T10:00:32;98813.50;;;22.48;57.81
21240;BME280;10778;48.962;9.018;2023-07-31T10:02:59;98813.81;;;22.33;56.19
21240;BME280;10778;48.962;9.018;2023-07-31T10:05:50;98819.06;;;22.65;56.26
21240;BME280;10778;48.962;9.018;2023-07-31T10:08:18;98791.41;;;23.44;54.67
21240;BME280;10778;48.962;9.018;2023-07-31T10:10:46;98792.59;;;22.87;55.06
21240;BME280;10778;48.962;9.018;2023-07-31T10:13:12;98800.38;;;22.77;55.08
21240;BME280;10778;48.962;9.018;2023-07-31T10:15:40;98795.91;;;22.71;56.11
21240;BME280;10778;48.962;9.018;2023-07-31T10:18:07;98797.78;;;22.52;56.34
21240;BME280;10778;48.962;9.018;2023-07-31T10:20:34;98790.41;;;22.66;56.03
21240;BME280;10778;48.962;9.018;2023-07-31T10:23:01;98790.44;;;22.40;55.38
21240;BME280;10778;48.962;9.018;2023-07-31T10:25:27;98781.72;;;22.82;55.14
21240;BME280;10778;48.962;9.018;2023-07-31T10:27:55;98777.09;;;22.90;56.10
21240;BME280;10778;48.962;9.018;2023-07-31T10:30:24;98775.94;;;22.67;54.53
21240;BME280;10778;48.962;9.018;2023-07-31T10:32:52;98768.69;;;22.86;55.53
21240;BME280;10778;48.962;9.018;2023-07-31T10:35:20;98778.31;;;22.75;54.63
21240;BME280;10778;48.962;9.018;2023-07-31T10:37:48;98782.34;;;22.28;55.24
21240;BME280;10778;48.962;9.018;2023-07-31T10:40:19;98785.41;;;22.69;55.88
21240;BME280;10778;48.962;9.018;2023-07-31T10:42:56;98770.84;;;22.96;56.24
21240;BME280;10778;48.962;9.018;2023-07-31T10:47:58;98775.63;;;24.03;53.57
21240;BME280;10778;48.962;9.018;2023-07-31T10:50:26;98772.50;;;23.39;54.13
21240;BME280;10778;48.962;9.018;2023-07-31T10:52:54;98780.84;;;23.97;53.44
21240;BME280;10778;48.962;9.018;2023-07-31T10:55:30;98780.34;;;23.65;51.58
21240;BME280;10778;48.962;9.018;2023-07-31T10:58:07;98776.47;;;23.18;52.61
21240;BME280;10778;48.962;9.018;2023-07-31T11:00:34;98762.50;;;22.85;52.84
21240;BME280;10778;48.962;9.018;2023-07-31T11:03:02;98756.88;;;23.48;52.56
21240;BME280;10778;48.962;9.018;2023-07-31T11:08:19;98767.44;;;23.00;54.41
21240;BME280;10778;48.962;9.018;2023-07-31T11:10:47;98780.47;;;22.66;54.63
21240;BME280;10778;48.962;9.018;2023-07-31T11:13:14;98774.81;;;22.37;55.19
21240;BME280;10778;48.962;9.018;2023-07-31T11:15:40;98777.78;;;22.10;56.33
21240;BME280;10778;48.962;9.018;2023-07-31T11:18:06;98772.56;;;22.15;55.54
21240;BME280;10778;48.962;9.018;2023-07-31T11:20:35;98765.81;;;22.99;55.25
21240;BME280;10778;48.962;9.018;2023-07-31T11:23:09;98761.97;;;22.95;54.67
21240;BME280;10778;48.962;9.018;2023-07-31T11:25:36;98758.84;;;22.49;54.82
21240;BME280;10778;48.962;9.018;2023-07-31T11:28:10;98749.78;;;22.43;55.54
21240;BME280;10778;48.962;9.018;2023-07-31T11:30:37;98750.00;;;22.23;55.63
21240;BME280;10778;48.962;9.018;2023-07-31T11:33:05;98753.81;;;22.15;55.68
21240;BME280;10778;48.962;9.018;2023-07-31T11:35:36;98760.28;;;22.08;55.90
21240;BME280;10778;48.962;9.018;2023-07-31T11:38:07;98739.28;;;22.23;56.71
21240;BME280;10778;48.962;9.018;2023-07-31T11:40:44;98749.53;;;22.52;56.08
21240;BME280;10778;48.962;9.018;2023-07-31T11:43:10;98741.47;;;23.13;55.19
21240;BME280;10778;48.962;9.018;2023-07-31T11:45:45;98744.44;;;22.93;53.96
21240;BME280;10778;48.962;9.018;2023-07-31T11:48:19;98734.03;;;22.84;54.16
21240;BME280;10778;48.962;9.018;2023-07-31T11:50:45;98732.06;;;23.22;55.69
21240;BME280;10778;48.962;9.018;2023-07-31T11:53:13;98732.25;;;23.09;55.13
21240;BME280;10778;48.962;9.018;2023-07-31T11:55:39;98722.31;;;23.76;54.65
21240;BME280;10778;48.962;9.018;2023-07-31T11:58:05;98717.31;;;23.55;53.55
21240;BME280;10778;48.962;9.018;2023-07-31T12:00:32;98719.38;;;23.53;53.91
21240;BME280;10778;48.962;9.018;2023-07-31T12:02:58;98712.69;;;23.20;53.57
21240;BME280;10778;48.962;9.018;2023-07-31T12:05:24;98719.75;;;23.45;54.21
21240;BME280;10778;48.962;9.018;2023-07-31T12:07:52;98712.06;;;23.49;53.60
21240;BME280;10778;48.962;9.018;2023-07-31T12:10:23;98710.44;;;23.17;53.76
21240;BME280;10778;48.962;9.018;2023-07-31T12:15:33;98702.59;;;23.34;54.79
21240;BME280;10778;48.962;9.018;2023-07-31T12:17:59;98698.50;;;23.32;54.80
21240;BME280;10778;48.962;9.018;2023-07-31T12:20:25;98698.25;;;23.33;54.82
21240;BME280;10778;48.962;9.018;2023-07-31T12:22:52;98692.69;;;23.47;54.21
21240;BME280;10778;48.962;9.018;2023-07-31T12:25:17;98691.75;;;23.10;53.54
21240;BME280;10778;48.962;9.018;2023-07-31T12:27:47;98675.97;;;23.44;53.44
21240;BME280;10778;48.962;9.018;2023-07-31T12:30:34;98684.16;;;23.62;54.81
21240;BME280;10778;48.962;9.018;2023-07-31T12:33:05;98676.13;;;23.07;53.48
21240;BME280;10778;48.962;9.018;2023-07-31T12:35:37;98675.66;;;23.10;54.30
21240;BME280;10778;48.962;9.018;2023-07-31T12:38:03;98678.97;;;23.24;54.93
21240;BME280;10778;48.962;9.018;2023-07-31T12:40:29;98678.31;;;23.53;53.93
21240;BME280;10778;48.962;9.018;2023-07-31T12:42:55;98674.31;;;23.79;53.50
21240;BME280;10778;48.962;9.018;2023-07-31T12:45:21;98666.63;;;23.83;53.10
21240;BME280;10778;48.962;9.018;2023-07-31T12:47:49;98662.44;;;23.27;53.42
21240;BME280;10778;48.962;9.018;2023-07-31T12:50:16;98668.16;;;22.88;55.59
21240;BME280;10778;48.962;9.018;2023-07-31T12:52:42;98668.81;;;22.72;55.95
21240;BME280;10778;48.962;9.018;2023-07-31T12:55:08;98661.09;;;22.64;56.59
21240;BME280;10778;48.962;9.018;2023-07-31T12:57:34;98654.72;;;22.77;56.22
21240;BME280;10778;48.962;9.018;2023-07-31T13:00:00;98656.00;;;22.74;56.51
21240;BME280;10778;48.962;9.018;2023-07-31T13:02:26;98647.69;;;22.64;57.18
21240;BME280;10778;48.962;9.018;2023-07-31T13:04:52;98652.03;;;22.77;56.77
21240;BME280;10778;48.962;9.018;2023-07-31T13:07:20;98656.00;;;22.74;56.83
21240;BME280;10778;48.962;9.018;2023-07-31T13:09:46;98648.66;;;22.69;57.27
21240;BME280;10778;48.962;9.018;2023-07-31T13:12:12;98646.31;;;22.73;57.22
21240;BME280;10778;48.962;9.018;2023-07-31T13:14:37;98653.41;;;22.67;56.51